createdAt,value
2018-11-27T00:00:21.044Z,-1.20
2018-11-27T00:02:49.553Z,-1.20
2018-11-27T00:05:18.067Z,-1.20
2018-11-27T00:07:46.578Z,-1.20
2018-11-27T00:10:15.064Z,-1.20
2018-11-27T00:12:43.559Z,-1.20
2018-11-27T00:15:12.891Z,-1.20
2018-11-27T00:17:41.400Z,-1.20
2018-11-27T00:20:11.990Z,-1.20
2018-11-27T00:22:40.669Z,-1.20
2018-11-27T00:25:12.245Z,-1.20
2018-11-27T00:27:40.727Z,-1.20
2018-11-27T00:30:13.510Z,-1.20
2018-11-27T00:32:42.035Z,-1.20
2018-11-27T00:35:12.395Z,-1.20
2018-11-27T00:37:40.992Z,-1.20
2018-11-27T00:40:13.579Z,-1.20
2018-11-27T00:42:42.083Z,-1.20
2018-11-27T00:45:11.795Z,-1.20
2018-11-27T00:47:40.404Z,-1.20
2018-11-27T00:50:11.195Z,-1.20
2018-11-27T00:52:39.741Z,-1.20
2018-11-27T00:55:09.874Z,-1.20
2018-11-27T00:57:38.915Z,-1.20
2018-11-27T01:00:12.903Z,-1.10
2018-11-27T01:02:41.432Z,-1.10
2018-11-27T01:05:11.354Z,-1.10
2018-11-27T01:07:39.856Z,-1.10
2018-11-27T01:10:11.270Z,-1.00
2018-11-27T01:12:39.770Z,-1.00
2018-11-27T01:15:09.738Z,-1.00
2018-11-27T01:17:38.854Z,-0.90
2018-11-27T01:20:13.186Z,-0.90
2018-11-27T01:22:41.718Z,-0.80
2018-11-27T01:25:11.044Z,-0.80
2018-11-27T01:27:39.534Z,-0.80
2018-11-27T01:30:10.134Z,-0.80
2018-11-27T01:32:38.686Z,-0.80
2018-11-27T01:35:09.117Z,-0.80
2018-11-27T01:37:37.677Z,-0.70
2018-11-27T01:40:09.721Z,-0.70
2018-11-27T01:42:38.217Z,-0.70
2018-11-27T01:45:08.909Z,-0.70
2018-11-27T01:47:37.426Z,-0.60
2018-11-27T01:50:08.374Z,-0.60
2018-11-27T01:52:36.882Z,-0.60
2018-11-27T01:55:06.173Z,-0.60
2018-11-27T01:57:34.906Z,-0.50
2018-11-27T02:00:03.546Z,-0.50
2018-11-27T02:02:32.037Z,-0.50
2018-11-27T02:05:00.546Z,-0.50
2018-11-27T02:07:29.043Z,-0.40
2018-11-27T02:09:57.554Z,-0.40
2018-11-27T02:12:26.478Z,-0.40
2018-11-27T02:14:55.090Z,-0.40
2018-11-27T02:17:23.602Z,-0.30
2018-11-27T02:19:52.067Z,-0.30
2018-11-27T02:22:20.578Z,-0.30
2018-11-27T02:24:49.068Z,-0.30
2018-11-27T02:27:17.771Z,-0.20
2018-11-27T02:29:46.245Z,-0.20
2018-11-27T02:32:14.770Z,-0.20
2018-11-27T02:34:43.261Z,-0.20
2018-11-27T02:37:11.735Z,-0.20
2018-11-27T02:39:40.250Z,-0.20
2018-11-27T02:42:08.731Z,-0.20
2018-11-27T02:44:37.321Z,-0.10
2018-11-27T02:47:06.257Z,-0.10
2018-11-27T02:49:34.738Z,-0.10
2018-11-27T02:52:03.293Z,-0.10
2018-11-27T02:54:31.770Z,-0.10
2018-11-27T02:57:00.265Z,-0.10
2018-11-27T02:59:28.773Z,-0.10
2018-11-27T03:01:57.269Z,-0.10
2018-11-27T03:04:25.877Z,-0.10
2018-11-27T03:06:54.365Z,-0.10
2018-11-27T03:09:23.089Z,0.00
2018-11-27T03:11:51.569Z,0.00
2018-11-27T03:14:20.053Z,0.00
2018-11-27T03:16:48.554Z,0.00
2018-11-27T03:19:17.044Z,0.00
2018-11-27T03:21:45.901Z,0.10
2018-11-27T03:24:14.392Z,0.00
2018-11-27T03:26:42.889Z,0.00
2018-11-27T03:29:11.355Z,0.10
2018-11-27T03:31:39.882Z,0.10
2018-11-27T03:34:08.392Z,0.10
2018-11-27T03:36:36.873Z,0.10
2018-11-27T03:39:09.094Z,0.10
2018-11-27T03:41:37.881Z,0.10
2018-11-27T03:44:06.633Z,0.10
2018-11-27T03:46:35.158Z,0.10
2018-11-27T03:49:03.673Z,0.10
2018-11-27T03:51:32.165Z,0.10
2018-11-27T03:54:01.509Z,0.10
2018-11-27T03:56:29.998Z,0.10
2018-11-27T03:58:58.457Z,0.20
2018-11-27T04:01:26.940Z,0.20
2018-11-27T04:03:55.436Z,0.20
2018-11-27T04:06:23.981Z,0.20
2018-11-27T04:08:52.592Z,0.20
2018-11-27T04:11:21.071Z,0.20
2018-11-27T04:13:49.541Z,0.30
2018-11-27T04:16:18.032Z,0.30
2018-11-27T04:18:46.524Z,0.30
2018-11-27T04:21:15.061Z,0.30
2018-11-27T04:23:43.528Z,0.30
2018-11-27T04:26:12.129Z,0.30
2018-11-27T04:28:40.630Z,0.30
2018-11-27T04:31:09.124Z,0.40
2018-11-27T04:33:37.603Z,0.40
2018-11-27T04:36:06.657Z,0.40
2018-11-27T04:38:35.152Z,0.40
2018-11-27T04:41:03.632Z,0.40
2018-11-27T04:43:32.180Z,0.40
2018-11-27T04:46:00.669Z,0.40
2018-11-27T04:48:29.171Z,0.40
2018-11-27T04:50:57.669Z,0.40
2018-11-27T04:53:26.172Z,0.40
2018-11-27T04:55:54.668Z,0.40
2018-11-27T04:58:23.160Z,0.40
2018-11-27T05:00:51.648Z,0.40
2018-11-27T05:03:20.148Z,0.40
2018-11-27T05:05:48.656Z,0.50
2018-11-27T05:08:17.164Z,0.50
2018-11-27T05:10:45.756Z,0.50
2018-11-27T05:13:14.231Z,0.50
2018-11-27T05:15:42.960Z,0.50
2018-11-27T05:18:11.477Z,0.50
2018-11-27T05:20:39.971Z,0.50
2018-11-27T05:23:08.491Z,0.50
2018-11-27T05:25:37.015Z,0.50
2018-11-27T05:28:05.595Z,0.50
2018-11-27T05:30:34.175Z,0.50
2018-11-27T05:33:02.670Z,0.50
2018-11-27T05:35:31.803Z,0.50
2018-11-27T05:38:01.853Z,0.50
2018-11-27T05:40:30.367Z,0.50
2018-11-27T05:43:01.279Z,0.60
2018-11-27T05:45:30.884Z,0.60
2018-11-27T05:47:59.358Z,0.60
2018-11-27T05:50:28.583Z,0.60
2018-11-27T05:52:57.075Z,0.60
2018-11-27T05:55:25.554Z,0.60
2018-11-27T05:57:55.090Z,0.60
2018-11-27T06:00:25.538Z,0.60
2018-11-27T06:02:56.073Z,0.60
2018-11-27T06:05:24.758Z,0.60
2018-11-27T06:07:53.263Z,0.60
2018-11-27T06:10:22.442Z,0.60
2018-11-27T06:12:50.964Z,0.60
2018-11-27T06:15:20.518Z,0.60
2018-11-27T06:17:54.194Z,0.60
2018-11-27T06:20:23.153Z,0.60
2018-11-27T06:22:52.422Z,0.60
2018-11-27T06:25:22.114Z,0.60
2018-11-27T06:27:52.678Z,0.60
2018-11-27T06:30:22.745Z,0.70
2018-11-27T06:32:51.318Z,0.70
2018-11-27T06:37:44.942Z,0.70
2018-11-27T06:40:16.010Z,0.70
2018-11-27T06:42:44.497Z,0.70
2018-11-27T06:45:14.237Z,0.70
2018-11-27T06:47:42.851Z,0.70
2018-11-27T06:50:12.493Z,0.60
2018-11-27T06:52:41.009Z,0.70
2018-11-27T06:55:11.906Z,0.60
2018-11-27T06:57:40.408Z,0.60
2018-11-27T07:00:23.641Z,0.70
2018-11-27T07:02:52.173Z,0.70
2018-11-27T07:05:20.704Z,0.70
2018-11-27T07:07:49.173Z,0.70
2018-11-27T07:10:18.713Z,0.70
2018-11-27T07:12:47.908Z,0.70
2018-11-27T07:15:18.780Z,0.70
2018-11-27T07:17:47.306Z,0.70
2018-11-27T07:20:15.828Z,0.70
2018-11-27T07:22:44.328Z,0.70
2018-11-27T07:25:13.776Z,0.70
2018-11-27T07:27:43.620Z,0.70
2018-11-27T07:30:13.585Z,0.80
2018-11-27T07:32:42.944Z,0.80
2018-11-27T07:35:12.608Z,0.80
2018-11-27T07:37:41.244Z,0.80
2018-11-27T07:40:12.028Z,0.80
2018-11-27T07:42:40.645Z,0.80
2018-11-27T07:45:13.922Z,0.80
2018-11-27T07:47:42.469Z,0.80
2018-11-27T07:50:11.724Z,0.90
2018-11-27T07:52:40.311Z,0.90
2018-11-27T07:55:11.159Z,0.90
2018-11-27T07:57:39.692Z,0.90
2018-11-27T08:00:16.739Z,0.90
2018-11-27T08:02:47.112Z,0.90
2018-11-27T08:05:18.555Z,0.90
2018-11-27T08:07:50.999Z,1.00
2018-11-27T08:10:20.675Z,1.00
2018-11-27T08:12:49.181Z,1.00
2018-11-27T08:15:18.859Z,1.00
2018-11-27T08:17:47.383Z,1.00
2018-11-27T08:20:20.026Z,1.00
2018-11-27T08:22:48.494Z,1.10
2018-11-27T08:25:17.003Z,1.10
2018-11-27T08:27:45.539Z,1.10
2018-11-27T08:30:16.095Z,1.20
2018-11-27T08:32:44.663Z,1.20
2018-11-27T08:35:16.063Z,1.30
2018-11-27T08:37:45.023Z,1.30
2018-11-27T08:40:14.639Z,1.30
2018-11-27T08:42:43.165Z,1.30
2018-11-27T08:45:15.535Z,1.40
2018-11-27T08:47:44.111Z,1.30
2018-11-27T08:50:13.722Z,1.30
2018-11-27T08:52:46.659Z,1.40
2018-11-27T08:55:12.659Z,1.40
2018-11-27T08:57:42.294Z,1.40
2018-11-27T09:00:13.398Z,1.50
2018-11-27T09:02:41.935Z,1.50
2018-11-27T09:05:11.046Z,1.60
2018-11-27T09:07:39.574Z,1.60
2018-11-27T09:10:12.474Z,1.60
2018-11-27T09:12:40.970Z,1.70
2018-11-27T09:15:11.110Z,1.70
2018-11-27T09:17:39.850Z,1.70
2018-11-27T09:20:10.154Z,1.80
2018-11-27T09:22:38.858Z,1.80
2018-11-27T09:25:10.053Z,1.80
2018-11-27T09:27:38.571Z,1.80
2018-11-27T09:30:21.110Z,1.80
2018-11-27T09:32:49.703Z,1.80
2018-11-27T09:35:18.271Z,1.80
2018-11-27T09:37:46.815Z,1.90
2018-11-27T09:40:16.740Z,1.90
2018-11-27T09:42:45.297Z,1.90
2018-11-27T09:45:16.038Z,2.00
2018-11-27T09:47:45.423Z,2.00
2018-11-27T09:50:14.546Z,2.00
2018-11-27T09:52:43.066Z,2.10
2018-11-27T09:55:12.751Z,2.10
2018-11-27T09:57:41.251Z,2.10
2018-11-27T10:00:24.960Z,2.20
2018-11-27T10:02:54.754Z,2.20
2018-11-27T10:05:23.254Z,2.20
2018-11-27T10:07:51.766Z,2.30
2018-11-27T10:10:22.378Z,2.30
2018-11-27T10:12:51.083Z,2.30
2018-11-27T10:15:21.435Z,2.30
2018-11-27T10:17:52.827Z,2.30
2018-11-27T10:20:22.282Z,2.40
2018-11-27T10:22:50.787Z,2.40
2018-11-27T10:25:19.281Z,2.40
2018-11-27T10:27:47.810Z,2.50
2018-11-27T10:30:17.330Z,2.50
2018-11-27T10:32:45.962Z,2.50
2018-11-27T10:35:17.490Z,2.60
2018-11-27T10:37:46.069Z,2.60
2018-11-27T10:40:14.567Z,2.60
2018-11-27T10:42:43.200Z,2.60
2018-11-27T10:45:13.102Z,2.60
2018-11-27T10:47:41.615Z,2.70
2018-11-27T10:50:12.142Z,2.70
2018-11-27T10:52:42.087Z,2.70
2018-11-27T10:55:11.942Z,2.70
2018-11-27T10:57:40.814Z,2.80
2018-11-27T11:00:19.930Z,2.80
2018-11-27T11:02:53.810Z,2.80
2018-11-27T11:05:25.422Z,2.80
2018-11-27T11:07:54.157Z,2.80
2018-11-27T11:10:22.654Z,2.90
2018-11-27T11:12:51.161Z,2.90
2018-11-27T11:15:19.671Z,2.90
2018-11-27T11:17:48.178Z,3.00
2018-11-27T11:20:16.725Z,3.00
2018-11-27T11:22:45.257Z,3.00
2018-11-27T11:25:15.845Z,3.00
2018-11-27T11:27:44.865Z,3.10
2018-11-27T11:30:17.645Z,3.10
2018-11-27T11:32:46.206Z,3.10
2018-11-27T11:35:14.716Z,3.20
2018-11-27T11:37:43.333Z,3.20
2018-11-27T11:40:16.914Z,3.20
2018-11-27T11:42:45.616Z,3.20
2018-11-27T11:45:14.136Z,3.20
2018-11-27T11:47:43.049Z,3.30
2018-11-27T11:50:15.649Z,3.30
2018-11-27T11:52:45.670Z,3.30
2018-11-27T11:55:15.193Z,3.40
2018-11-27T11:57:44.076Z,3.40
2018-11-27T12:00:21.780Z,3.40
2018-11-27T12:02:50.344Z,3.40
2018-11-27T12:05:18.857Z,3.50
2018-11-27T12:07:47.723Z,3.50
2018-11-27T12:10:16.828Z,3.50
2018-11-27T12:12:47.052Z,3.60
2018-11-27T12:15:16.568Z,3.60
2018-11-27T12:17:45.627Z,3.60
2018-11-27T12:20:15.225Z,3.60
2018-11-27T12:22:45.019Z,3.70
2018-11-27T12:25:13.915Z,3.70
2018-11-27T12:27:42.431Z,3.70
2018-11-27T12:30:16.293Z,3.70
2018-11-27T12:32:44.840Z,3.70
2018-11-27T12:35:13.952Z,3.70
2018-11-27T12:37:42.572Z,3.70
2018-11-27T12:40:13.133Z,3.70
2018-11-27T12:42:41.669Z,3.70
2018-11-27T12:45:15.500Z,3.70
2018-11-27T12:47:44.291Z,3.70
2018-11-27T12:51:18.370Z,3.70
2018-11-27T12:53:46.535Z,3.60
2018-11-27T12:56:15.078Z,3.60
2018-11-27T12:58:43.553Z,3.60
2018-11-27T13:01:12.038Z,3.60
2018-11-27T13:03:40.524Z,3.60
2018-11-27T13:06:09.198Z,3.60
2018-11-27T13:08:37.675Z,3.60
2018-11-27T13:11:11.374Z,3.60
2018-11-27T13:13:34.779Z,3.60
2018-11-27T13:16:03.403Z,3.60
2018-11-27T13:18:31.899Z,3.60
2018-11-27T13:21:01.179Z,3.60
2018-11-27T13:23:29.699Z,3.60
2018-11-27T13:25:58.176Z,3.50
2018-11-27T13:28:26.663Z,3.50
2018-11-27T13:31:01.131Z,3.50
2018-11-27T13:33:38.135Z,3.50
2018-11-27T13:36:07.883Z,3.50
2018-11-27T13:38:36.515Z,3.50
2018-11-27T13:41:05.400Z,3.50
2018-11-27T13:43:34.629Z,3.50
2018-11-27T13:46:03.199Z,3.50
2018-11-27T13:48:31.727Z,3.40
2018-11-27T13:51:00.211Z,3.40
2018-11-27T13:53:28.751Z,3.40
2018-11-27T13:55:57.231Z,3.40
2018-11-27T13:58:25.727Z,3.40
2018-11-27T14:00:54.520Z,3.40
2018-11-27T14:03:23.012Z,3.40
2018-11-27T14:05:51.550Z,3.30
2018-11-27T14:08:20.087Z,3.30
2018-11-27T14:10:48.582Z,3.30
2018-11-27T14:13:17.099Z,3.30
2018-11-27T14:15:45.590Z,3.30
2018-11-27T14:18:14.074Z,3.20
2018-11-27T14:20:42.566Z,3.20
2018-11-27T14:23:11.069Z,3.20
2018-11-27T14:25:40.866Z,3.20
2018-11-27T14:28:09.342Z,3.10
2018-11-27T14:30:37.872Z,3.10
2018-11-27T14:33:06.433Z,3.10
2018-11-27T14:35:34.929Z,3.10
2018-11-27T14:38:03.433Z,3.10
2018-11-27T14:40:31.920Z,3.10
2018-11-27T14:43:00.409Z,3.10
2018-11-27T14:45:28.938Z,3.00
2018-11-27T14:47:58.509Z,3.00
2018-11-27T14:50:27.014Z,3.00
2018-11-27T14:52:55.517Z,3.00
2018-11-27T14:55:26.157Z,3.00
2018-11-27T14:57:54.867Z,3.00
2018-11-27T15:00:24.465Z,3.00
2018-11-27T15:02:53.109Z,2.90
2018-11-27T15:05:25.191Z,2.90
2018-11-27T15:07:53.769Z,2.90
2018-11-27T15:10:22.322Z,2.90
2018-11-27T15:12:50.933Z,2.90
2018-11-27T15:15:19.469Z,2.90
2018-11-27T15:17:47.965Z,2.90
2018-11-27T15:20:17.553Z,2.80
2018-11-27T15:22:46.061Z,2.80
2018-11-27T15:25:14.606Z,2.80
2018-11-27T15:27:43.166Z,2.80
2018-11-27T15:30:18.956Z,2.80
2018-11-27T15:32:47.561Z,2.80
2018-11-27T15:35:16.209Z,2.80
2018-11-27T15:37:44.737Z,2.80
2018-11-27T15:40:15.501Z,2.80
2018-11-27T15:42:44.024Z,2.70
2018-11-27T15:45:14.057Z,2.70
2018-11-27T15:47:42.577Z,2.70
2018-11-27T15:50:11.225Z,2.70
2018-11-27T15:52:39.701Z,2.70
2018-11-27T15:55:16.597Z,2.70
2018-11-27T15:57:45.487Z,2.70
2018-11-27T16:00:18.011Z,2.70
2018-11-27T16:02:46.698Z,2.70
2018-11-27T16:05:15.710Z,2.60
2018-11-27T16:07:44.606Z,2.60
2018-11-27T16:10:14.949Z,2.60
2018-11-27T16:12:43.474Z,2.60
2018-11-27T16:15:13.063Z,2.60
2018-11-27T16:17:41.616Z,2.60
2018-11-27T16:20:19.424Z,2.60
2018-11-27T16:22:48.866Z,2.60
2018-11-27T16:25:18.307Z,2.60
2018-11-27T16:27:46.906Z,2.60
2018-11-27T16:30:16.501Z,2.60
2018-11-27T16:32:45.026Z,2.60
2018-11-27T16:35:14.162Z,2.60
2018-11-27T16:37:43.739Z,2.60
2018-11-27T16:40:13.606Z,2.60
2018-11-27T16:42:42.166Z,2.60
2018-11-27T16:45:13.291Z,2.60
2018-11-27T16:47:42.026Z,2.60
2018-11-27T16:50:11.698Z,2.60
2018-11-27T16:52:40.204Z,2.60
2018-11-27T16:55:12.920Z,2.60
2018-11-27T16:57:41.486Z,2.60
2018-11-27T17:00:20.201Z,2.60
2018-11-27T17:02:50.309Z,2.60
2018-11-27T17:05:18.244Z,2.60
2018-11-27T17:07:46.756Z,2.60
2018-11-27T17:10:16.299Z,2.60
2018-11-27T17:12:45.280Z,2.50
2018-11-27T17:15:17.128Z,2.50
2018-11-27T17:17:45.650Z,2.60
2018-11-27T17:20:30.085Z,2.60
2018-11-27T17:22:59.773Z,2.60
2018-11-27T17:25:28.289Z,2.50
2018-11-27T17:28:13.590Z,2.50
2018-11-27T17:30:47.966Z,2.50
2018-11-27T17:33:25.486Z,2.50
2018-11-27T17:35:53.971Z,2.50
2018-11-27T17:38:22.467Z,2.50
2018-11-27T17:40:51.025Z,2.50
2018-11-27T17:43:19.513Z,2.50
2018-11-27T17:45:48.009Z,2.50
2018-11-27T17:48:16.529Z,2.50
2018-11-27T17:50:45.033Z,2.50
2018-11-27T17:53:13.517Z,2.50
2018-11-27T17:55:42.001Z,2.50
2018-11-27T17:58:10.502Z,2.50
2018-11-27T18:00:39.023Z,2.50
2018-11-27T18:03:08.744Z,2.50
2018-11-27T18:05:37.300Z,2.50
2018-11-27T18:08:07.027Z,2.60
2018-11-27T18:10:36.283Z,2.50
2018-11-27T18:13:05.460Z,2.50
2018-11-27T18:15:34.043Z,2.50
2018-11-27T18:18:02.539Z,2.60
2018-11-27T18:20:31.051Z,2.60
2018-11-27T18:22:59.575Z,2.60
2018-11-27T18:25:28.114Z,2.50
2018-11-27T18:27:56.591Z,2.50
2018-11-27T18:30:25.115Z,2.50
2018-11-27T18:32:53.618Z,2.50
2018-11-27T18:35:24.255Z,2.50
2018-11-27T18:37:53.014Z,2.50
2018-11-27T18:40:21.821Z,2.50
2018-11-27T18:42:52.332Z,2.50
2018-11-27T18:45:24.798Z,2.50
2018-11-27T18:47:53.342Z,2.50
2018-11-27T18:50:22.934Z,2.50
2018-11-27T18:52:51.445Z,2.50
2018-11-27T18:55:20.006Z,2.50
2018-11-27T18:57:48.964Z,2.50
2018-11-27T19:00:22.540Z,2.50
2018-11-27T19:02:51.084Z,2.50
2018-11-27T19:05:19.618Z,2.50
2018-11-27T19:07:48.160Z,2.50
2018-11-27T19:10:28.359Z,2.50
2018-11-27T19:12:56.912Z,2.40
2018-11-27T19:15:57.933Z,2.40
2018-11-27T19:18:27.240Z,2.40
2018-11-27T19:20:55.748Z,2.40
2018-11-27T19:23:25.420Z,2.40
2018-11-27T19:25:54.076Z,2.40
2018-11-27T19:28:22.557Z,2.40
2018-11-27T19:30:51.565Z,2.40
2018-11-27T19:33:20.150Z,2.40
2018-11-27T19:35:48.665Z,2.40
2018-11-27T19:38:18.441Z,2.40
2018-11-27T19:40:46.925Z,2.40
2018-11-27T19:43:15.445Z,2.40
2018-11-27T19:45:43.977Z,2.40
2018-11-27T19:48:13.785Z,2.40
2018-11-27T19:50:42.277Z,2.40
2018-11-27T19:53:12.570Z,2.30
2018-11-27T19:55:40.991Z,2.30
2018-11-27T19:58:10.066Z,2.30
2018-11-27T20:00:38.656Z,2.30
2018-11-27T20:03:08.761Z,2.30
2018-11-27T20:05:37.288Z,2.20
2018-11-27T20:08:07.373Z,2.20
2018-11-27T20:10:35.912Z,2.20
2018-11-27T20:13:04.420Z,2.10
2018-11-27T20:15:32.905Z,2.10
2018-11-27T20:18:01.433Z,2.10
2018-11-27T20:20:29.949Z,2.10
2018-11-27T20:22:58.758Z,2.00
2018-11-27T20:25:27.317Z,2.00
2018-11-27T20:27:55.836Z,2.00
2018-11-27T20:30:26.952Z,2.00
2018-11-27T20:32:59.607Z,1.90
2018-11-27T20:35:28.668Z,1.90
2018-11-27T20:37:57.892Z,1.90
2018-11-27T20:40:26.544Z,1.90
2018-11-27T20:42:55.068Z,1.90
2018-11-27T20:45:24.908Z,1.90
2018-11-27T20:47:57.048Z,1.90
2018-11-27T20:50:25.544Z,1.90
2018-11-27T20:52:54.119Z,1.90
2018-11-27T20:55:22.687Z,1.90
2018-11-27T20:57:53.616Z,1.90
2018-11-27T21:00:25.805Z,1.80
2018-11-27T21:02:58.723Z,1.80
2018-11-27T21:05:27.339Z,1.80
2018-11-27T21:07:55.827Z,1.80
2018-11-27T21:10:24.371Z,1.70
2018-11-27T21:12:52.861Z,1.70
2018-11-27T21:15:21.427Z,1.70
2018-11-27T21:17:49.976Z,1.70
2018-11-27T21:20:19.543Z,1.70
2018-11-27T21:22:47.379Z,1.60
2018-11-27T21:25:19.968Z,1.60
2018-11-27T21:27:57.698Z,1.60
2018-11-27T21:30:26.202Z,1.50
2018-11-27T21:32:54.731Z,1.50
2018-11-27T21:35:23.257Z,1.40
2018-11-27T21:37:51.743Z,1.40
2018-11-27T21:40:20.483Z,1.40
2018-11-27T21:42:48.995Z,1.30
2018-11-27T21:45:22.702Z,1.30
2018-11-27T21:47:51.794Z,1.20
2018-11-27T21:50:25.382Z,1.20
2018-11-27T21:52:54.574Z,1.10
2018-11-27T21:55:23.095Z,1.10
2018-11-27T21:57:51.901Z,1.00
2018-11-27T22:00:22.361Z,1.00
2018-11-27T22:02:50.850Z,0.90
2018-11-27T22:05:19.366Z,0.90
2018-11-27T22:07:47.875Z,0.80
2018-11-27T22:10:18.551Z,0.80
2018-11-27T22:12:48.341Z,0.70
2018-11-27T22:15:20.310Z,0.70
2018-11-27T22:17:48.824Z,0.70
2018-11-27T22:20:21.250Z,0.60
2018-11-27T22:22:45.905Z,0.60
2018-11-27T22:25:14.410Z,0.50
2018-11-27T22:27:42.901Z,0.50
2018-11-27T22:30:13.461Z,0.40
2018-11-27T22:32:43.209Z,0.40
2018-11-27T22:35:11.909Z,0.30
2018-11-27T22:37:40.410Z,0.30
2018-11-27T22:40:24.620Z,0.20
2018-11-27T22:42:55.114Z,0.20
2018-11-27T22:45:31.597Z,0.20
2018-11-27T22:48:00.113Z,0.10
2018-11-27T22:50:28.650Z,0.10
2018-11-27T22:52:57.181Z,0.00
2018-11-27T22:55:25.710Z,0.00
2018-11-27T22:57:54.221Z,0.00
2018-11-27T23:00:35.658Z,0.00
2018-11-27T23:03:07.705Z,0.00
2018-11-27T23:05:36.220Z,-0.10
2018-11-27T23:08:04.701Z,-0.10
2018-11-27T23:10:36.534Z,-0.10
2018-11-27T23:13:05.571Z,-0.20
2018-11-27T23:15:34.064Z,-0.20
2018-11-27T23:18:02.584Z,-0.20
2018-11-27T23:20:31.116Z,-0.20
2018-11-27T23:22:59.632Z,-0.20
2018-11-27T23:25:28.157Z,-0.20
2018-11-27T23:27:56.681Z,-0.20
2018-11-27T23:30:26.008Z,-0.20
2018-11-27T23:32:54.528Z,-0.20
2018-11-27T23:35:23.069Z,-0.20
2018-11-27T23:37:51.588Z,-0.30
2018-11-27T23:40:21.059Z,-0.30
2018-11-27T23:42:49.618Z,-0.30
2018-11-27T23:45:19.560Z,-0.30
2018-11-27T23:47:48.119Z,-0.30
2018-11-27T23:50:17.816Z,-0.40
2018-11-27T23:52:46.591Z,-0.40
2018-11-27T23:55:15.745Z,-0.40
2018-11-27T23:57:45.295Z,-0.40
